Time;durP1;ratioP1;P1;durP2;ratioP2;P2;SDS_P1;SDS_P2;PMS_P1;PMS_P2;Temp;Humidity;BMP_temperature;BMP_pressure;BME280_temperature;BME280_humidity;BME280_pressure;Samples;Min_cycle;Max_cycle;Signal;HPM_P1;HPM_P2
2022/04/23 00:00:53;;;;;;;;;;;9.90;99.90;;;;;;5070201;28;20454;-57
2022/04/23 00:03:20;;;;;;;;;;;9.60;99.90;;;;;;5071376;28;19969;-57
2022/04/23 00:05:47;;;;;;;;;;;9.30;99.90;;;;;;5068140;28;19924;-57
2022/04/23 00:08:14;;;;;;;;;;;9.20;99.90;;;;;;5072815;28;19929;-57
2022/04/23 00:10:41;;;;;;;;;;;9.10;99.90;;;;;;5072681;28;19924;-57
2022/04/23 00:13:09;;;;;;;;;;;9.00;99.90;;;;;;5067713;28;19925;-57
2022/04/23 00:15:38;;;;;;;;;;;9.00;99.90;;;;;;5073332;28;19947;-57
2022/04/23 00:18:05;;;;;;;;;;;8.90;99.90;;;;;;5071143;28;19932;-57
2022/04/23 00:20:32;;;;;;;;;;;8.80;99.90;;;;;;5072127;28;19982;-58
2022/04/23 00:22:59;;;;;;;;;;;8.80;99.90;;;;;;5073685;28;19943;-58
2022/04/23 00:25:26;;;;;;;;;;;8.70;99.90;;;;;;5072404;28;19924;-58
2022/04/23 00:27:53;;;;;;;;;;;8.80;99.90;;;;;;5067429;28;19924;-58
2022/04/23 00:30:19;;;;;;;;;;;8.60;99.90;;;;;;5070974;28;19988;-58
2022/04/23 00:32:47;;;;;;;;;;;8.60;99.90;;;;;;5071093;28;20449;-58
2022/04/23 00:35:14;;;;;;;;;;;8.60;99.90;;;;;;5071843;28;19959;-59
2022/04/23 00:37:41;;;;;;;;;;;8.60;99.90;;;;;;5070992;28;19986;-58
2022/04/23 00:40:16;;;;;;;;;;;8.60;99.90;;;;;;5070378;28;19929;-58
2022/04/23 00:42:46;;;;;;;;;;;8.70;99.90;;;;;;5073053;28;20417;-58
2022/04/23 00:45:13;;;;;;;;;;;8.70;99.90;;;;;;5070775;28;19940;-58
2022/04/23 00:47:39;;;;;;;;;;;8.80;99.90;;;;;;5071684;28;20045;-58
2022/04/23 00:50:08;;;;;;;;;;;8.90;99.90;;;;;;5071985;28;19986;-58
2022/04/23 00:52:35;;;;;;;;;;;8.80;99.90;;;;;;5071566;28;19925;-58
2022/04/23 00:55:02;;;;;;;;;;;8.80;99.90;;;;;;5064815;28;19924;-58
2022/04/23 00:57:29;;;;;;;;;;;8.70;99.90;;;;;;5065621;28;19924;-58
2022/04/23 00:59:56;;;;;;;;;;;8.60;99.90;;;;;;5069468;28;19951;-58
2022/04/23 01:02:23;;;;;;;;;;;8.60;99.90;;;;;;5070437;28;19994;-58
2022/04/23 01:04:54;;;;;;;;;;;8.60;99.90;;;;;;5071309;28;19931;-58
2022/04/23 01:07:22;;;;;;;;;;;8.60;99.90;;;;;;5071687;28;20011;-58
2022/04/23 01:09:49;;;;;;;;;;;8.60;99.90;;;;;;5070882;28;19924;-58
2022/04/23 01:12:17;;;;;;;;;;;8.50;99.90;;;;;;5063767;28;19977;-59
2022/04/23 01:14:57;;;;;;;;;;;8.40;99.90;;;;;;5070352;28;20107;-58
2022/04/23 01:17:23;;;;;;;;;;;8.30;99.90;;;;;;5071057;28;20013;-58
2022/04/23 01:19:50;;;;;;;;;;;8.30;99.90;;;;;;5069353;28;19994;-58
2022/04/23 01:22:18;;;;;;;;;;;8.20;99.90;;;;;;5072109;28;20404;-58
2022/04/23 01:24:45;;;;;;;;;;;8.30;99.90;;;;;;5069303;28;19978;-58
2022/04/23 01:27:12;;;;;;;;;;;8.10;99.90;;;;;;5066650;28;20602;-58
2022/04/23 01:29:39;;;;;;;;;;;8.30;99.90;;;;;;5067935;28;19981;-59
2022/04/23 01:32:06;;;;;;;;;;;8.40;99.90;;;;;;5068709;28;19947;-58
2022/04/23 01:34:32;;;;;;;;;;;8.50;99.90;;;;;;5071078;28;20353;-58
2022/04/23 01:36:59;;;;;;;;;;;8.70;99.90;;;;;;5070207;28;19925;-58
2022/04/23 01:39:28;;;;;;;;;;;8.70;99.90;;;;;;5068848;28;19932;-58
2022/04/23 01:41:55;;;;;;;;;;;8.60;99.90;;;;;;5064654;28;19924;-58
2022/04/23 01:44:21;;;;;;;;;;;8.50;99.90;;;;;;5070029;28;19925;-58
2022/04/23 01:46:48;;;;;;;;;;;8.20;99.90;;;;;;5069395;28;20000;-58
2022/04/23 01:49:15;;;;;;;;;;;8.10;99.90;;;;;;5070060;28;19994;-58
2022/04/23 01:51:42;;;;;;;;;;;8.00;99.90;;;;;;5068892;28;19928;-58
2022/04/23 01:54:08;;;;;;;;;;;8.20;99.90;;;;;;5062247;28;20017;-58
2022/04/23 01:56:36;;;;;;;;;;;8.10;99.90;;;;;;5069642;28;20361;-58
2022/04/23 01:59:03;;;;;;;;;;;8.00;99.90;;;;;;5071740;28;19993;-57
2022/04/23 02:01:32;;;;;;;;;;;7.90;99.90;;;;;;5068399;28;20366;-57
2022/04/23 02:04:00;;;;;;;;;;;7.70;99.90;;;;;;5068104;28;19928;-56
2022/04/23 02:06:27;;;;;;;;;;;7.80;99.90;;;;;;5067401;28;19924;-58
2022/04/23 02:08:53;;;;;;;;;;;7.90;99.90;;;;;;5067616;28;19925;-57
2022/04/23 02:11:20;;;;;;;;;;;7.80;99.90;;;;;;5069790;28;20302;-57
2022/04/23 02:13:49;;;;;;;;;;;7.70;99.90;;;;;;5069209;28;19929;-57
2022/04/23 02:16:15;;;;;;;;;;;7.60;99.90;;;;;;5068360;28;19929;-57
2022/04/23 02:18:42;;;;;;;;;;;7.60;99.90;;;;;;5069111;28;20398;-58
2022/04/23 02:21:09;;;;;;;;;;;7.50;99.90;;;;;;5069993;28;19978;-57
2022/04/23 02:23:36;;;;;;;;;;;7.60;99.90;;;;;;5066038;28;19978;-57
2022/04/23 02:26:04;;;;;;;;;;;7.60;99.90;;;;;;5069272;28;19998;-57
2022/04/23 02:28:30;;;;;;;;;;;7.50;99.90;;;;;;5069526;28;20386;-57
2022/04/23 02:30:59;;;;;;;;;;;7.50;99.90;;;;;;5069306;28;19974;-57
2022/04/23 02:33:25;;;;;;;;;;;7.50;99.90;;;;;;5071233;28;19924;-58
2022/04/23 02:35:52;;;;;;;;;;;7.60;99.90;;;;;;5068968;28;19924;-58
2022/04/23 02:38:19;;;;;;;;;;;7.70;99.90;;;;;;5058627;28;19924;-57
2022/04/23 02:40:46;;;;;;;;;;;7.60;99.90;;;;;;5054794;28;19924;-59
2022/04/23 02:43:13;;;;;;;;;;;7.70;99.90;;;;;;5065357;28;19977;-58
2022/04/23 02:45:40;;;;;;;;;;;7.70;99.90;;;;;;5069559;28;20293;-57
2022/04/23 02:48:09;;;;;;;;;;;7.70;99.90;;;;;;5071210;28;19979;-57
2022/04/23 02:50:37;;;;;;;;;;;7.70;99.90;;;;;;5070075;28;20405;-57
2022/04/23 02:53:04;;;;;;;;;;;7.60;99.90;;;;;;5069038;28;19974;-58
2022/04/23 02:55:32;;;;;;;;;;;7.60;99.90;;;;;;5069119;28;19929;-58
2022/04/23 02:58:01;;;;;;;;;;;7.70;99.90;;;;;;5070825;28;20424;-58
2022/04/23 03:00:28;;;;;;;;;;;7.60;99.90;;;;;;5066702;28;19961;-59
2022/04/23 03:02:55;;;;;;;;;;;7.50;99.90;;;;;;5067581;28;19935;-57
2022/04/23 03:05:24;;;;;;;;;;;7.50;99.90;;;;;;5069087;28;20417;-57
2022/04/23 03:07:51;;;;;;;;;;;7.40;99.90;;;;;;5070922;28;19932;-57
2022/04/23 03:10:19;;;;;;;;;;;7.30;99.90;;;;;;5070833;28;19994;-58
2022/04/23 03:12:45;;;;;;;;;;;7.40;99.90;;;;;;5070304;28;19924;-58
2022/04/23 03:15:13;;;;;;;;;;;7.30;99.90;;;;;;5071290;28;19924;-58
2022/04/23 03:17:40;;;;;;;;;;;7.40;99.90;;;;;;5071493;28;19990;-58
2022/04/23 03:20:09;;;;;;;;;;;7.50;99.90;;;;;;5071032;28;20390;-57
2022/04/23 03:22:37;;;;;;;;;;;7.40;99.90;;;;;;5071598;28;19931;-59
2022/04/23 03:25:05;;;;;;;;;;;7.40;99.90;;;;;;5069452;28;19932;-57
2022/04/23 03:27:31;;;;;;;;;;;7.50;99.90;;;;;;5072635;28;19933;-58
2022/04/23 03:29:58;;;;;;;;;;;7.70;99.90;;;;;;5073464;28;20398;-58
2022/04/23 03:32:25;;;;;;;;;;;7.60;99.90;;;;;;5074475;28;20398;-58
2022/04/23 03:34:52;;;;;;;;;;;7.80;99.90;;;;;;5072692;28;19925;-58
2022/04/23 03:37:18;;;;;;;;;;;7.70;99.90;;;;;;5063523;28;19940;-58
2022/04/23 03:39:46;;;;;;;;;;;7.80;99.90;;;;;;5068794;28;19982;-58
2022/04/23 03:42:13;;;;;;;;;;;7.80;99.90;;;;;;5074379;28;19970;-56
2022/04/23 03:44:40;;;;;;;;;;;7.90;99.90;;;;;;5074546;28;19929;-58
2022/04/23 03:47:07;;;;;;;;;;;7.90;99.90;;;;;;5073112;28;20387;-57
2022/04/23 03:49:34;;;;;;;;;;;7.90;99.90;;;;;;5072839;28;19982;-58
2022/04/23 03:52:00;;;;;;;;;;;7.80;99.90;;;;;;5073894;28;20535;-58
2022/04/23 03:54:27;;;;;;;;;;;7.90;99.90;;;;;;5072808;28;19924;-58
2022/04/23 03:56:55;;;;;;;;;;;8.00;99.90;;;;;;5072877;28;20287;-58
2022/04/23 03:59:24;;;;;;;;;;;8.00;99.90;;;;;;5070639;28;19928;-59
2022/04/23 04:01:53;;;;;;;;;;;8.00;99.90;;;;;;5068529;28;20023;-59
2022/04/23 04:04:19;;;;;;;;;;;8.20;99.90;;;;;;5068108;28;20001;-58
2022/04/23 04:06:46;;;;;;;;;;;8.50;99.90;;;;;;5069290;28;19985;-59
2022/04/23 04:09:13;;;;;;;;;;;8.50;99.90;;;;;;5073758;28;19931;-58
2022/04/23 04:14:26;;;;;;;;;;;8.60;99.90;;;;;;5072530;28;19943;-59
2022/04/23 04:16:53;;;;;;;;;;;8.40;99.90;;;;;;5068986;28;19924;-58
2022/04/23 04:19:20;;;;;;;;;;;8.20;99.90;;;;;;5070621;28;19995;-59
2022/04/23 04:21:47;;;;;;;;;;;8.10;99.90;;;;;;5079166;22;19925;-49
2022/04/23 04:24:14;;;;;;;;;;;8.10;99.90;;;;;;5035219;28;19925;-48
2022/04/23 04:26:41;;;;;;;;;;;8.00;99.90;;;;;;5034105;28;19929;-48
2022/04/23 04:29:08;;;;;;;;;;;8.10;99.90;;;;;;5032828;28;19925;-48
2022/04/23 04:31:50;;;;;;;;;;;8.10;99.90;;;;;;5028144;28;19925;-48
2022/04/23 04:34:17;;;;;;;;;;;8.20;99.90;;;;;;5027560;28;20620;-48
2022/04/23 04:36:44;;;;;;;;;;;8.20;99.90;;;;;;5035557;28;20022;-48
2022/04/23 04:39:11;;;;;;;;;;;8.20;99.90;;;;;;5032520;28;20169;-48
2022/04/23 04:41:38;;;;;;;;;;;8.40;99.90;;;;;;5028638;28;19929;-48
2022/04/23 04:44:05;;;;;;;;;;;8.50;99.90;;;;;;5038823;28;19925;-48
2022/04/23 04:46:36;;;;;;;;;;;8.60;99.90;;;;;;5033455;28;20268;-48
2022/04/23 04:49:04;;;;;;;;;;;8.70;99.90;;;;;;5030901;28;19944;-48
2022/04/23 04:51:35;;;;;;;;;;;9.20;99.90;;;;;;5032362;28;19929;-48
2022/04/23 04:54:01;;;;;;;;;;;9.50;99.90;;;;;;5029724;28;19936;-46
2022/04/23 04:56:28;;;;;;;;;;;9.70;99.90;;;;;;5030555;28;19929;-48
2022/04/23 04:58:55;;;;;;;;;;;9.80;99.90;;;;;;5029960;28;19933;-48
2022/04/23 05:01:22;;;;;;;;;;;9.80;99.90;;;;;;5038034;28;19924;-49
2022/04/23 05:03:49;;;;;;;;;;;9.70;99.90;;;;;;5035665;28;19929;-48
2022/04/23 05:06:17;;;;;;;;;;;9.90;99.90;;;;;;5041826;28;19939;-48
2022/04/23 05:08:44;;;;;;;;;;;9.90;99.90;;;;;;5036418;28;20469;-48
2022/04/23 05:11:10;;;;;;;;;;;9.80;99.90;;;;;;5028713;28;19928;-48
2022/04/23 05:13:37;;;;;;;;;;;10.10;99.90;;;;;;5032482;28;19941;-48
2022/04/23 05:16:06;;;;;;;;;;;10.10;99.90;;;;;;5033226;28;19971;-48
2022/04/23 05:18:32;;;;;;;;;;;9.80;99.90;;;;;;5032838;28;20295;-48
2022/04/23 05:20:59;;;;;;;;;;;9.90;99.90;;;;;;5028847;28;19979;-48
2022/04/23 05:23:27;;;;;;;;;;;10.20;99.90;;;;;;5035317;28;19979;-48
2022/04/23 05:25:55;;;;;;;;;;;10.30;99.90;;;;;;5032563;28;19925;-48
2022/04/23 05:28:22;;;;;;;;;;;10.50;99.90;;;;;;5031517;28;19998;-47
2022/04/23 05:30:48;;;;;;;;;;;10.50;99.90;;;;;;5031321;28;20402;-48
2022/04/23 05:33:15;;;;;;;;;;;10.70;99.90;;;;;;5033934;28;19925;-47
2022/04/23 05:35:42;;;;;;;;;;;10.60;99.90;;;;;;5029647;28;20299;-49
2022/04/23 05:38:09;;;;;;;;;;;10.50;99.90;;;;;;5032260;28;19979;-48
2022/04/23 05:40:37;;;;;;;;;;;10.70;99.90;;;;;;5032629;28;19932;-48
2022/04/23 05:43:04;;;;;;;;;;;10.90;99.90;;;;;;5041321;28;19932;-49
2022/04/23 05:45:31;;;;;;;;;;;11.30;99.90;;;;;;5037021;28;19925;-49
2022/04/23 05:47:58;;;;;;;;;;;11.60;99.90;;;;;;5030183;28;19967;-48
2022/04/23 05:50:25;;;;;;;;;;;11.70;99.90;;;;;;5032595;28;19926;-49
2022/04/23 05:52:52;;;;;;;;;;;11.60;99.90;;;;;;5036113;28;19929;-48
2022/04/23 05:55:19;;;;;;;;;;;11.70;99.90;;;;;;5036096;28;20019;-49
2022/04/23 05:57:47;;;;;;;;;;;11.90;99.90;;;;;;5051190;28;19925;-48
2022/04/23 06:00:15;;;;;;;;;;;12.30;99.90;;;;;;5038086;28;19932;-49
2022/04/23 06:02:43;;;;;;;;;;;12.30;99.90;;;;;;5030670;28;19937;-50
2022/04/23 06:05:11;;;;;;;;;;;12.90;99.90;;;;;;5032113;28;20442;-49
2022/04/23 06:07:39;;;;;;;;;;;13.10;99.90;;;;;;5032099;28;19925;-49
2022/04/23 06:10:07;;;;;;;;;;;12.80;99.90;;;;;;5032483;28;19925;-48
2022/04/23 06:12:35;;;;;;;;;;;12.20;99.90;;;;;;5029450;28;19929;-48
2022/04/23 06:15:03;;;;;;;;;;;12.10;99.90;;;;;;5032081;28;20000;-49
2022/04/23 06:17:30;;;;;;;;;;;11.90;99.90;;;;;;5031563;28;19926;-48
2022/04/23 06:19:57;;;;;;;;;;;11.80;99.90;;;;;;5032049;28;19932;-49
2022/04/23 06:22:24;;;;;;;;;;;11.80;99.90;;;;;;5032006;28;19926;-48
2022/04/23 06:24:51;;;;;;;;;;;11.90;99.90;;;;;;5032016;28;20318;-48
2022/04/23 06:27:18;;;;;;;;;;;12.10;99.90;;;;;;5032212;28;20015;-49
2022/04/23 06:29:45;;;;;;;;;;;11.90;99.90;;;;;;5031655;28;19929;-48
2022/04/23 06:32:13;;;;;;;;;;;11.90;99.90;;;;;;5031310;28;19929;-48
2022/04/23 06:34:40;;;;;;;;;;;11.40;99.90;;;;;;5031627;28;19979;-49
2022/04/23 06:37:06;;;;;;;;;;;11.40;99.90;;;;;;5032049;28;19925;-48
2022/04/23 06:39:34;;;;;;;;;;;11.60;99.90;;;;;;5032024;28;19987;-48
2022/04/23 06:42:00;;;;;;;;;;;11.70;99.90;;;;;;5030293;28;19932;-49
2022/04/23 06:44:27;;;;;;;;;;;11.50;99.90;;;;;;5030564;28;19924;-48
2022/04/23 06:46:54;;;;;;;;;;;11.30;99.90;;;;;;5031199;28;19929;-48
2022/04/23 06:49:24;;;;;;;;;;;11.60;99.90;;;;;;5028841;28;19933;-48
2022/04/23 06:51:51;;;;;;;;;;;11.70;99.90;;;;;;5026478;28;19983;-49
2022/04/23 06:54:18;;;;;;;;;;;12.00;99.90;;;;;;5030580;28;20275;-48
2022/04/23 06:56:45;;;;;;;;;;;12.00;99.90;;;;;;5031553;28;20415;-48
2022/04/23 06:59:12;;;;;;;;;;;11.80;99.90;;;;;;5034042;28;19925;-48
2022/04/23 07:01:40;;;;;;;;;;;11.90;99.90;;;;;;5035159;28;19931;-48
2022/04/23 07:04:07;;;;;;;;;;;11.90;99.90;;;;;;5035381;28;19948;-48
2022/04/23 07:06:39;;;;;;;;;;;12.20;99.90;;;;;;5032204;28;20391;-50
2022/04/23 07:09:06;;;;;;;;;;;12.20;99.90;;;;;;5034509;28;19926;-48
2022/04/23 07:11:33;;;;;;;;;;;11.80;99.90;;;;;;5029953;28;20561;-48
2022/04/23 07:14:00;;;;;;;;;;;12.00;99.90;;;;;;5031290;28;19951;-49
2022/04/23 07:16:26;;;;;;;;;;;11.60;99.90;;;;;;5032453;28;19947;-49
2022/04/23 07:18:53;;;;;;;;;;;11.60;99.90;;;;;;5032899;28;19925;-48
2022/04/23 07:21:20;;;;;;;;;;;11.50;99.90;;;;;;5033611;28;19925;-49
2022/04/23 07:24:08;;;;;;;;;;;11.70;99.90;;;;;;5031521;28;19925;-49
2022/04/23 07:26:38;;;;;;;;;;;12.00;99.90;;;;;;5032476;28;19925;-49
2022/04/23 07:29:06;;;;;;;;;;;12.20;99.90;;;;;;5034533;28;20353;-49
2022/04/23 07:31:36;;;;;;;;;;;12.10;99.90;;;;;;5033817;28;19959;-49
2022/04/23 07:39:32;;;;;;;;;;;12.80;99.90;;;;;;5035224;28;20402;-49
2022/04/23 07:41:59;;;;;;;;;;;13.30;99.90;;;;;;5034419;28;20445;-49
2022/04/23 07:44:26;;;;;;;;;;;13.80;99.90;;;;;;5034678;28;20226;-49
2022/04/23 07:46:53;;;;;;;;;;;13.70;99.90;;;;;;5032616;28;20399;-49
2022/04/23 07:49:20;;;;;;;;;;;13.70;99.90;;;;;;5034442;28;19925;-48
2022/04/23 07:51:47;;;;;;;;;;;14.10;99.90;;;;;;5031041;28;19987;-49
2022/04/23 07:54:14;;;;;;;;;;;14.10;99.90;;;;;;5033024;28;19925;-48
2022/04/23 07:56:43;;;;;;;;;;;14.10;99.90;;;;;;5034121;28;19925;-49
2022/04/23 07:59:10;;;;;;;;;;;14.10;99.90;;;;;;5015066;28;19971;-48
2022/04/23 08:01:37;;;;;;;;;;;14.00;99.90;;;;;;5029126;28;19929;-49
2022/04/23 08:04:04;;;;;;;;;;;13.80;99.90;;;;;;5034380;28;19925;-49
2022/04/23 08:06:32;;;;;;;;;;;13.60;99.90;;;;;;5034322;28;19929;-49
2022/04/23 08:08:59;;;;;;;;;;;13.40;99.90;;;;;;5033904;28;20063;-48
2022/04/23 08:11:26;;;;;;;;;;;13.20;99.90;;;;;;5032097;28;20306;-49
2022/04/23 08:13:54;;;;;;;;;;;13.30;99.90;;;;;;5032938;28;19929;-48
2022/04/23 08:16:21;;;;;;;;;;;13.30;99.90;;;;;;5033761;28;19972;-49
2022/04/23 08:18:47;;;;;;;;;;;13.10;99.90;;;;;;5032250;28;20306;-49
2022/04/23 08:21:15;;;;;;;;;;;12.90;99.90;;;;;;5032139;28;19947;-49
2022/04/23 08:23:41;;;;;;;;;;;13.00;99.90;;;;;;5032171;28;19925;-48
2022/04/23 08:26:08;;;;;;;;;;;12.50;99.90;;;;;;5031411;28;19925;-49
2022/04/23 08:31:21;;;;;;;;;;;12.80;99.90;;;;;;5027542;28;20048;-48
2022/04/23 08:34:00;;;;;;;;;;;13.10;99.90;;;;;;5031824;28;20023;-49
2022/04/23 08:36:35;;;;;;;;;;;13.10;99.90;;;;;;5032126;28;20051;-49
2022/04/23 08:39:02;;;;;;;;;;;13.40;99.90;;;;;;5032921;28;19925;-49
2022/04/23 08:41:31;;;;;;;;;;;13.10;99.90;;;;;;5031475;28;19925;-48
2022/04/23 08:43:59;;;;;;;;;;;12.70;99.90;;;;;;5031843;28;19925;-49
2022/04/23 08:46:29;;;;;;;;;;;12.60;99.90;;;;;;5032878;28;19995;-49
2022/04/23 08:49:02;;;;;;;;;;;12.40;99.90;;;;;;5032659;28;19925;-49
2022/04/23 08:51:33;;;;;;;;;;;12.90;99.90;;;;;;5032701;28;19925;-48
2022/04/23 08:54:04;;;;;;;;;;;13.10;99.90;;;;;;5030540;28;19925;-48
2022/04/23 08:56:30;;;;;;;;;;;13.10;99.90;;;;;;5032941;28;19925;-49
2022/04/23 08:58:57;;;;;;;;;;;12.70;99.90;;;;;;5031747;28;19929;-48
2022/04/23 09:01:24;;;;;;;;;;;13.00;99.90;;;;;;5031988;28;19925;-49
2022/04/23 09:03:52;;;;;;;;;;;13.40;99.90;;;;;;5032394;28;19987;-49
2022/04/23 09:06:19;;;;;;;;;;;13.50;99.90;;;;;;5032704;28;19932;-49
2022/04/23 09:09:01;;;;;;;;;;;13.80;99.90;;;;;;5031410;28;19926;-48
2022/04/23 09:11:34;;;;;;;;;;;14.20;99.90;;;;;;5030483;28;19925;-49
2022/04/23 09:14:01;;;;;;;;;;;14.00;99.90;;;;;;5032274;28;19932;-49
2022/04/23 09:24:46;;;;;;;;;;;15.20;99.90;;;;;;5032385;28;19932;-49
2022/04/23 09:27:13;;;;;;;;;;;15.10;99.90;;;;;;5037136;28;20409;-49
2022/04/23 09:29:42;;;;;;;;;;;15.40;99.90;;;;;;5051569;28;19925;-49
2022/04/23 09:32:09;;;;;;;;;;;15.30;99.90;;;;;;5051276;28;19924;-50
2022/04/23 09:34:38;;;;;;;;;;;15.80;99.90;;;;;;5033629;28;20551;-49
2022/04/23 09:37:05;;;;;;;;;;;15.50;99.90;;;;;;5032960;28;19948;-49
2022/04/23 09:39:34;;;;;;;;;;;15.60;99.90;;;;;;5045355;28;19925;-49
2022/04/23 09:42:14;;;;;;;;;;;15.40;99.90;;;;;;5033569;28;19971;-49
2022/04/23 09:44:41;;;;;;;;;;;15.50;99.90;;;;;;5032977;28;20338;-49
2022/04/23 09:47:08;;;;;;;;;;;15.80;99.90;;;;;;5032809;28;19925;-49
2022/04/23 09:49:35;;;;;;;;;;;15.30;99.90;;;;;;5032331;28;19971;-49
2022/04/23 09:52:05;;;;;;;;;;;15.20;99.90;;;;;;5032695;28;19994;-49
2022/04/23 09:54:32;;;;;;;;;;;15.80;99.90;;;;;;5032287;28;20383;-49
2022/04/23 09:56:59;;;;;;;;;;;16.20;99.90;;;;;;5028643;28;19979;-51
2022/04/23 09:59:26;;;;;;;;;;;16.60;99.90;;;;;;5032739;28;20016;-49
2022/04/23 10:01:54;;;;;;;;;;;16.60;99.90;;;;;;5032177;28;19925;-49
2022/04/23 10:04:23;;;;;;;;;;;16.60;99.90;;;;;;5032500;28;19971;-49
2022/04/23 10:06:50;;;;;;;;;;;16.90;99.90;;;;;;5028524;28;19932;-49
2022/04/23 10:09:19;;;;;;;;;;;17.90;99.90;;;;;;5032616;28;19933;-49
2022/04/23 10:11:49;;;;;;;;;;;18.20;99.90;;;;;;5032292;28;19971;-49
2022/04/23 10:14:19;;;;;;;;;;;18.10;99.90;;;;;;5032251;28;19929;-49
2022/04/23 10:16:47;;;;;;;;;;;18.20;99.90;;;;;;5032379;28;19928;-49
2022/04/23 10:19:15;;;;;;;;;;;18.50;99.90;;;;;;5028605;28;19929;-49
2022/04/23 10:21:43;;;;;;;;;;;19.00;99.90;;;;;;5058459;22;19952;-59
2022/04/23 10:24:13;;;;;;;;;;;19.00;99.90;;;;;;5086974;28;19924;-58
2022/04/23 10:26:48;;;;;;;;;;;19.10;99.90;;;;;;5088155;28;19931;-59
2022/04/23 10:29:16;;;;;;;;;;;19.80;99.90;;;;;;5071150;28;20035;-59
2022/04/23 10:31:43;;;;;;;;;;;20.40;99.90;;;;;;5070355;28;19974;-59
2022/04/23 10:34:24;;;;;;;;;;;21.00;99.90;;;;;;5070380;28;20340;-59
2022/04/23 10:37:12;;;;;;;;;;;21.20;99.90;;;;;;5069306;28;19970;-59
2022/04/23 10:39:40;;;;;;;;;;;21.20;99.90;;;;;;5066959;28;19935;-59
2022/04/23 10:42:08;;;;;;;;;;;20.00;99.90;;;;;;5070124;28;20390;-59
2022/04/23 10:44:35;;;;;;;;;;;18.80;99.90;;;;;;5066883;28;20033;-59
2022/04/23 10:47:11;;;;;;;;;;;17.60;99.90;;;;;;5070738;28;20566;-59
2022/04/23 10:49:37;;;;;;;;;;;17.90;99.90;;;;;;5069709;28;19925;-58
2022/04/23 10:52:04;;;;;;;;;;;18.20;99.90;;;;;;5068606;28;20002;-59
2022/04/23 10:54:55;;;;;;;;;;;18.00;99.90;;;;;;5070739;28;19989;-59
2022/04/23 10:57:23;;;;;;;;;;;18.70;99.90;;;;;;5061843;28;19928;-59
2022/04/23 10:59:50;;;;;;;;;;;19.30;99.90;;;;;;5068152;28;19924;-58
2022/04/23 11:02:30;;;;;;;;;;;20.00;99.90;;;;;;5068420;28;20365;-59
2022/04/23 11:13:28;;;;;;;;;;;20.30;99.90;;;;;;5061256;28;20449;-58
2022/04/23 11:16:07;;;;;;;;;;;19.50;99.90;;;;;;5062186;28;19924;-58
2022/04/23 11:18:34;;;;;;;;;;;19.20;99.90;;;;;;5069098;28;20393;-56
2022/04/23 11:21:05;;;;;;;;;;;17.90;99.90;;;;;;5067530;28;19928;-56
2022/04/23 11:23:32;;;;;;;;;;;17.60;99.90;;;;;;5066964;28;19924;-59
2022/04/23 11:25:59;;;;;;;;;;;17.90;99.90;;;;;;5070090;28;19940;-59
2022/04/23 11:28:27;;;;;;;;;;;18.40;99.90;;;;;;5070582;28;20405;-59
2022/04/23 11:30:57;;;;;;;;;;;18.60;99.90;;;;;;5068875;28;20634;-58
2022/04/23 11:33:24;;;;;;;;;;;18.80;99.90;;;;;;5063451;28;20007;-56
2022/04/23 11:35:50;;;;;;;;;;;18.30;99.90;;;;;;5069750;28;19970;-58
2022/04/23 11:38:18;;;;;;;;;;;17.50;99.90;;;;;;5070675;28;19929;-58
2022/04/23 11:40:44;;;;;;;;;;;17.00;99.90;;;;;;5070208;28;19982;-59
2022/04/23 11:43:12;;;;;;;;;;;17.10;99.90;;;;;;5070060;28;19934;-59
2022/04/23 11:45:47;;;;;;;;;;;17.10;99.90;;;;;;5070205;28;20058;-59
2022/04/23 11:48:14;;;;;;;;;;;16.90;99.90;;;;;;5068502;28;20010;-59
2022/04/23 11:50:41;;;;;;;;;;;16.80;99.90;;;;;;5070121;28;19985;-58
2022/04/23 11:53:09;;;;;;;;;;;17.00;99.90;;;;;;5068917;28;19925;-59
2022/04/23 11:55:36;;;;;;;;;;;17.10;99.90;;;;;;5065638;28;20428;-59
2022/04/23 11:58:05;;;;;;;;;;;17.40;99.90;;;;;;5070565;28;19928;-59
2022/04/23 12:00:32;;;;;;;;;;;17.00;99.90;;;;;;5072986;28;19924;-59
2022/04/23 12:03:01;;;;;;;;;;;17.00;99.90;;;;;;5079104;28;19977;-59
2022/04/23 12:05:29;;;;;;;;;;;16.70;99.90;;;;;;5069203;28;20294;-59
2022/04/23 12:07:56;;;;;;;;;;;16.20;99.90;;;;;;5083638;28;19932;-59
2022/04/23 12:10:24;;;;;;;;;;;16.20;99.90;;;;;;5070486;28;19932;-59
2022/04/23 12:12:51;;;;;;;;;;;16.40;99.90;;;;;;5082424;28;19968;-59
2022/04/23 12:15:19;;;;;;;;;;;16.60;99.90;;;;;;5087365;28;20381;-58
2022/04/23 12:17:47;;;;;;;;;;;16.70;99.90;;;;;;5085057;28;20366;-59
2022/04/23 12:20:16;;;;;;;;;;;16.90;99.90;;;;;;5082867;28;19935;-58
2022/04/23 12:22:54;;;;;;;;;;;17.20;99.90;;;;;;5081580;28;20356;-58
2022/04/23 12:25:25;;;;;;;;;;;17.10;99.90;;;;;;5081702;28;20298;-58
2022/04/23 12:27:52;;;;;;;;;;;17.60;99.90;;;;;;5077259;28;19928;-58
2022/04/23 12:41:35;;;;;;;;;;;18.80;99.90;;;;;;5076591;28;19993;-58
2022/04/23 12:44:16;;;;;;;;;;;18.20;99.90;;;;;;5084148;28;19932;-58
2022/04/23 12:46:52;;;;;;;;;;;18.00;99.90;;;;;;5090173;28;19976;-58
2022/04/23 12:49:22;;;;;;;;;;;18.50;99.90;;;;;;5078116;28;20301;-58
2022/04/23 12:51:54;;;;;;;;;;;18.40;99.90;;;;;;5079333;28;19924;-58
2022/04/23 12:54:22;;;;;;;;;;;18.60;99.90;;;;;;5077971;28;20352;-58
2022/04/23 12:56:49;;;;;;;;;;;18.50;99.90;;;;;;5084741;28;19924;-59
2022/04/23 12:59:16;;;;;;;;;;;18.20;99.90;;;;;;5077554;28;19932;-59
2022/04/23 13:01:43;;;;;;;;;;;18.00;99.90;;;;;;5079389;28;19930;-60
2022/04/23 13:04:11;;;;;;;;;;;17.70;99.90;;;;;;5078700;28;19994;-57
2022/04/23 13:09:23;;;;;;;;;;;17.30;99.90;;;;;;5071431;28;20084;-60
2022/04/23 13:11:51;;;;;;;;;;;17.20;99.90;;;;;;5086468;28;19924;-59
2022/04/23 13:14:19;;;;;;;;;;;17.60;99.90;;;;;;5080863;28;20387;-59
2022/04/23 13:16:46;;;;;;;;;;;17.90;99.90;;;;;;5066689;28;19925;-59
2022/04/23 13:19:13;;;;;;;;;;;17.60;99.90;;;;;;5070661;28;19978;-60
2022/04/23 13:21:39;;;;;;;;;;;17.50;99.90;;;;;;5068263;28;20448;-59
2022/04/23 13:24:06;;;;;;;;;;;17.70;99.90;;;;;;5089275;28;19928;-59
2022/04/23 13:26:34;;;;;;;;;;;17.70;99.90;;;;;;5076769;28;19977;-60
2022/04/23 13:29:01;;;;;;;;;;;17.90;99.90;;;;;;5084241;28;19928;-60
2022/04/23 13:31:28;;;;;;;;;;;18.00;99.90;;;;;;5087456;28;20435;-59
2022/04/23 13:33:55;;;;;;;;;;;18.10;99.90;;;;;;5074521;28;19925;-59
2022/04/23 13:36:22;;;;;;;;;;;18.20;99.90;;;;;;5078948;28;19934;-59
2022/04/23 13:38:49;;;;;;;;;;;17.80;99.90;;;;;;5073204;28;19970;-59
2022/04/23 13:41:17;;;;;;;;;;;17.80;99.90;;;;;;5076363;28;20837;-60
2022/04/23 13:43:45;;;;;;;;;;;17.70;99.90;;;;;;5068173;28;19993;-59
2022/04/23 13:46:12;;;;;;;;;;;17.60;99.90;;;;;;5071696;28;19982;-59
2022/04/23 13:48:39;;;;;;;;;;;17.20;99.90;;;;;;5071517;28;19982;-59
2022/04/23 13:51:06;;;;;;;;;;;17.10;99.90;;;;;;5073924;28;19932;-57
2022/04/23 13:53:33;;;;;;;;;;;16.90;99.90;;;;;;5076193;28;19924;-57
2022/04/23 13:56:00;;;;;;;;;;;16.80;99.90;;;;;;5074391;28;19924;-58
2022/04/23 13:58:27;;;;;;;;;;;16.70;99.90;;;;;;5074883;28;19963;-59
2022/04/23 14:00:55;;;;;;;;;;;17.10;99.90;;;;;;5076479;28;19928;-59
2022/04/23 14:11:37;;;;;;;;;;;17.00;99.90;;;;;;5075903;28;19932;-59
2022/04/23 14:14:03;;;;;;;;;;;17.30;99.90;;;;;;5087865;28;19924;-59
2022/04/23 14:16:35;;;;;;;;;;;17.30;99.90;;;;;;5075599;28;19925;-59
2022/04/23 14:19:02;;;;;;;;;;;17.40;99.90;;;;;;5083686;28;21149;-59
2022/04/23 14:21:28;;;;;;;;;;;17.40;99.90;;;;;;5079677;28;19981;-59
2022/04/23 14:23:55;;;;;;;;;;;17.40;99.90;;;;;;5084557;28;19924;-59
2022/04/23 14:26:22;;;;;;;;;;;17.50;99.90;;;;;;5089237;28;19932;-59
2022/04/23 14:28:49;;;;;;;;;;;17.30;99.90;;;;;;5089791;28;19931;-59
2022/04/23 14:31:16;;;;;;;;;;;17.40;99.90;;;;;;5081964;28;19967;-59
2022/04/23 14:33:44;;;;;;;;;;;17.20;99.90;;;;;;5073742;28;19924;-59
2022/04/23 14:36:11;;;;;;;;;;;17.10;99.90;;;;;;5085070;28;20335;-58
2022/04/23 14:38:39;;;;;;;;;;;17.20;99.90;;;;;;5089981;28;19928;-59
2022/04/23 14:41:06;;;;;;;;;;;17.20;99.90;;;;;;5089940;28;19963;-59
2022/04/23 14:43:34;;;;;;;;;;;17.20;99.90;;;;;;5072969;28;20010;-59
2022/04/23 14:46:02;;;;;;;;;;;17.10;99.90;;;;;;5068668;28;19979;-59
2022/04/23 14:48:28;;;;;;;;;;;17.10;99.90;;;;;;5066692;28;19978;-57
2022/04/23 14:53:41;;;;;;;;;;;16.70;99.90;;;;;;5069428;28;20421;-58
2022/04/23 14:56:07;;;;;;;;;;;16.60;99.90;;;;;;5069958;28;19931;-59
2022/04/23 14:58:34;;;;;;;;;;;16.60;99.90;;;;;;5070720;28;20160;-59
2022/04/23 15:01:01;;;;;;;;;;;16.60;99.90;;;;;;5069843;28;19925;-59
2022/04/23 15:03:28;;;;;;;;;;;16.50;99.90;;;;;;5069313;28;19932;-57
2022/04/23 15:05:55;;;;;;;;;;;16.40;99.90;;;;;;5067960;28;20409;-58
2022/04/23 15:08:23;;;;;;;;;;;16.30;99.90;;;;;;5070680;28;20306;-57
2022/04/23 15:10:49;;;;;;;;;;;16.20;99.90;;;;;;5064165;28;19925;-59
2022/04/23 15:13:16;;;;;;;;;;;16.20;99.90;;;;;;5069209;28;19925;-59
2022/04/23 15:15:45;;;;;;;;;;;16.20;99.90;;;;;;5069398;28;19929;-57
2022/04/23 15:18:12;;;;;;;;;;;16.40;99.90;;;;;;5064584;28;19933;-57